createdAt,value
2023-04-07T00:00:58.271Z,7.70
2023-04-07T00:03:28.202Z,7.60
2023-04-07T00:05:56.649Z,7.50
2023-04-07T00:08:24.897Z,7.50
2023-04-07T00:10:53.249Z,7.60
2023-04-07T00:13:21.386Z,7.60
2023-04-07T00:15:49.726Z,7.60
2023-04-07T00:18:17.940Z,7.60
2023-04-07T00:20:47.518Z,7.60
2023-04-07T00:23:15.752Z,7.60
2023-04-07T00:25:43.972Z,7.50
2023-04-07T00:28:12.201Z,7.60
2023-04-07T00:30:40.537Z,7.60
2023-04-07T00:33:09.708Z,7.60
2023-04-07T00:35:38.297Z,7.60
2023-04-07T00:38:08.066Z,7.60
2023-04-07T00:40:36.699Z,7.60
2023-04-07T00:43:04.966Z,7.70
2023-04-07T00:45:33.386Z,7.60
2023-04-07T00:48:01.723Z,7.70
2023-04-07T00:50:29.964Z,7.70
2023-04-07T00:52:58.297Z,7.60
2023-04-07T00:55:27.946Z,7.60
2023-04-07T00:57:57.059Z,7.60
2023-04-07T01:00:27.268Z,7.60
2023-04-07T01:03:01.284Z,7.70
2023-04-07T01:05:43.554Z,7.70
2023-04-07T01:08:18.659Z,7.70
2023-04-07T01:10:53.391Z,7.70
2023-04-07T01:13:27.865Z,7.70
2023-04-07T01:16:09.779Z,7.60
2023-04-07T01:18:47.443Z,7.70
2023-04-07T01:21:18.411Z,7.70
2023-04-07T01:24:02.458Z,7.70
2023-04-07T01:26:34.556Z,7.70
2023-04-07T01:29:31.674Z,7.70
2023-04-07T01:32:02.077Z,7.70
2023-04-07T01:34:34.473Z,7.70
2023-04-07T01:37:03.843Z,7.70
2023-04-07T01:39:33.697Z,7.70
2023-04-07T01:42:04.244Z,7.70
2023-04-07T01:44:34.673Z,7.70
2023-04-07T01:47:03.953Z,7.70
2023-04-07T01:49:33.215Z,7.70
2023-04-07T01:52:02.641Z,7.70
2023-04-07T01:54:31.671Z,7.60
2023-04-07T01:56:59.955Z,7.70
2023-04-07T01:59:28.948Z,7.70
2023-04-07T02:02:00.519Z,7.70
2023-04-07T02:04:34.024Z,7.70
2023-04-07T02:07:07.271Z,7.70
2023-04-07T02:09:42.631Z,7.60
2023-04-07T02:12:15.610Z,7.60
2023-04-07T02:14:53.680Z,7.70
2023-04-07T02:17:25.684Z,7.70
2023-04-07T02:19:57.312Z,7.60
2023-04-07T02:22:25.617Z,7.60
2023-04-07T02:24:53.858Z,7.60
2023-04-07T02:27:42.138Z,7.60
2023-04-07T02:30:11.576Z,7.60
2023-04-07T02:32:41.415Z,7.60
2023-04-07T02:35:10.252Z,7.60
2023-04-07T02:37:38.487Z,7.70
2023-04-07T02:40:07.862Z,7.60
2023-04-07T02:42:36.739Z,7.70
2023-04-07T02:45:05.315Z,7.70
2023-04-07T02:47:33.866Z,7.70
2023-04-07T02:50:04.210Z,7.60
2023-04-07T02:52:36.601Z,7.60
2023-04-07T02:55:12.000Z,7.60
2023-04-07T02:57:40.739Z,7.60
2023-04-07T03:00:17.077Z,7.60
2023-04-07T03:02:58.405Z,7.50
2023-04-07T03:05:29.830Z,7.60
2023-04-07T03:07:58.402Z,7.60
2023-04-07T03:10:26.993Z,7.60
2023-04-07T03:12:55.263Z,7.60
2023-04-07T03:15:23.856Z,7.60
2023-04-07T03:17:52.957Z,7.50
2023-04-07T03:20:22.432Z,7.60
2023-04-07T03:22:52.248Z,7.60
2023-04-07T03:25:27.497Z,7.60
2023-04-07T03:27:56.834Z,7.60
2023-04-07T03:30:28.182Z,7.60
2023-04-07T03:32:56.412Z,7.60
2023-04-07T03:35:25.344Z,7.70
2023-04-07T03:37:54.920Z,7.70
2023-04-07T03:40:23.197Z,7.60
2023-04-07T03:42:51.789Z,7.60
2023-04-07T03:45:20.460Z,7.60
2023-04-07T03:47:51.473Z,7.60
2023-04-07T03:50:20.058Z,7.60
2023-04-07T03:52:57.451Z,7.60
2023-04-07T03:55:28.254Z,7.60
2023-04-07T03:58:01.954Z,7.50
2023-04-07T04:00:34.012Z,7.40
2023-04-07T04:03:08.444Z,7.40
2023-04-07T04:05:41.645Z,7.40
2023-04-07T04:08:14.419Z,7.40
2023-04-07T04:10:43.735Z,7.40
2023-04-07T04:13:12.098Z,7.40
2023-04-07T04:15:41.959Z,7.50
2023-04-07T04:18:15.657Z,7.60
2023-04-07T04:20:44.151Z,7.60
2023-04-07T04:23:12.447Z,7.50
2023-04-07T04:25:43.228Z,7.50
2023-04-07T04:28:13.444Z,7.40
2023-04-07T04:30:42.478Z,7.50
2023-04-07T04:33:11.377Z,7.50
2023-04-07T04:35:50.349Z,7.50
2023-04-07T04:38:21.322Z,7.50
2023-04-07T04:41:03.663Z,7.40
2023-04-07T04:43:33.348Z,7.40
2023-04-07T04:46:03.119Z,7.50
2023-04-07T04:48:36.559Z,7.60
2023-04-07T04:51:07.103Z,7.50
2023-04-07T04:53:36.171Z,7.50
2023-04-07T04:56:06.867Z,7.60
2023-04-07T04:58:46.058Z,7.60
2023-04-07T05:01:20.304Z,7.50
2023-04-07T05:04:03.073Z,7.50
2023-04-07T05:06:31.719Z,7.50
2023-04-07T05:09:05.513Z,7.50
2023-04-07T05:11:43.660Z,7.50
2023-04-07T05:14:13.820Z,7.50
2023-04-07T05:16:48.199Z,7.60
2023-04-07T05:19:24.088Z,7.60
2023-04-07T05:21:55.910Z,7.60
2023-04-07T05:24:28.002Z,7.60
2023-04-07T05:27:01.902Z,7.60
2023-04-07T05:29:31.995Z,7.50
2023-04-07T05:32:01.604Z,7.60
2023-04-07T05:34:32.587Z,7.60
2023-04-07T05:37:00.945Z,7.60
2023-04-07T05:39:29.704Z,7.60
2023-04-07T05:42:01.620Z,7.60
2023-04-07T05:44:30.348Z,7.60
2023-04-07T05:46:58.734Z,7.60
2023-04-07T05:49:28.984Z,7.60
2023-04-07T05:52:05.963Z,7.60
2023-04-07T05:54:39.409Z,7.50
2023-04-07T05:57:09.942Z,7.60
2023-04-07T05:59:43.809Z,7.70
2023-04-07T06:02:12.940Z,7.70
2023-04-07T06:04:41.989Z,7.70
2023-04-07T06:07:14.682Z,7.70
2023-04-07T06:09:44.586Z,7.70
2023-04-07T06:12:15.203Z,7.60
2023-04-07T06:14:43.698Z,7.70
2023-04-07T06:17:11.946Z,7.60
2023-04-07T06:19:40.666Z,7.60
2023-04-07T06:22:08.879Z,7.60
2023-04-07T06:24:37.092Z,7.60
2023-04-07T06:27:06.736Z,7.70
2023-04-07T06:29:36.685Z,7.70
2023-04-07T06:32:07.604Z,7.70
2023-04-07T06:34:37.641Z,7.70
2023-04-07T06:37:06.953Z,7.80
2023-04-07T06:39:35.173Z,7.80
2023-04-07T06:42:03.353Z,7.90
2023-04-07T06:44:38.959Z,7.90
2023-04-07T06:47:07.397Z,8.00
2023-04-07T06:49:37.149Z,8.00
2023-04-07T06:52:06.532Z,8.00
2023-04-07T06:54:34.809Z,8.00
2023-04-07T06:57:03.102Z,7.90
2023-04-07T06:59:31.306Z,8.00
2023-04-07T07:02:01.149Z,7.90
2023-04-07T07:04:29.493Z,8.00
2023-04-07T07:06:57.908Z,8.00
2023-04-07T07:09:26.555Z,8.00
2023-04-07T07:11:54.883Z,8.00
2023-04-07T07:14:23.142Z,7.90
2023-04-07T07:16:51.299Z,7.90
2023-04-07T07:19:20.859Z,7.90
2023-04-07T07:21:49.070Z,7.90
2023-04-07T07:24:17.282Z,8.00
2023-04-07T07:26:46.022Z,8.10
2023-04-07T07:29:14.372Z,8.10
2023-04-07T07:31:42.674Z,8.10
2023-04-07T07:34:10.822Z,8.10
2023-04-07T07:36:40.428Z,8.20
2023-04-07T07:39:08.833Z,8.20
2023-04-07T07:41:37.137Z,8.30
2023-04-07T07:44:05.318Z,8.30
2023-04-07T07:46:33.681Z,8.30
2023-04-07T07:49:02.131Z,8.40
2023-04-07T07:51:30.749Z,8.40
2023-04-07T07:54:00.618Z,8.40
2023-04-07T07:56:28.842Z,8.30
2023-04-07T07:58:58.314Z,8.40
2023-04-07T08:01:26.790Z,8.40
2023-04-07T08:03:55.117Z,8.40
2023-04-07T08:06:23.665Z,8.40
2023-04-07T08:08:52.023Z,8.50
2023-04-07T08:11:21.983Z,8.60
2023-04-07T08:13:50.622Z,8.50
2023-04-07T08:16:19.502Z,8.50
2023-04-07T08:18:48.149Z,8.50
2023-04-07T08:21:16.748Z,8.60
2023-04-07T08:23:44.983Z,8.60
2023-04-07T08:26:13.359Z,8.60
2023-04-07T08:28:43.018Z,8.70
2023-04-07T08:31:11.330Z,8.70
2023-04-07T08:33:39.482Z,8.70
2023-04-07T08:36:08.399Z,8.70
2023-04-07T08:38:36.663Z,8.80
2023-04-07T08:41:07.825Z,8.80
2023-04-07T08:43:37.891Z,8.80
2023-04-07T08:46:09.504Z,8.70
2023-04-07T08:48:39.865Z,8.70
2023-04-07T08:51:10.367Z,8.60
2023-04-07T08:53:44.414Z,8.60
2023-04-07T08:56:14.086Z,8.60
2023-04-07T08:58:42.688Z,8.70
2023-04-07T09:01:14.635Z,8.70
2023-04-07T09:03:45.133Z,8.70
2023-04-07T09:06:13.474Z,8.80
2023-04-07T09:08:41.842Z,8.90
2023-04-07T09:11:10.297Z,8.90
2023-04-07T09:13:38.575Z,8.80
2023-04-07T09:16:06.961Z,9.00
2023-04-07T09:18:36.625Z,8.90
2023-04-07T09:21:07.793Z,8.90
2023-04-07T09:23:37.776Z,9.00
2023-04-07T09:26:22.302Z,9.00
2023-04-07T09:28:53.239Z,9.10
2023-04-07T09:31:22.390Z,9.10
2023-04-07T09:33:52.810Z,9.10
2023-04-07T09:36:21.004Z,9.10
2023-04-07T09:38:49.196Z,8.90
2023-04-07T09:41:18.261Z,9.00
2023-04-07T09:43:48.388Z,8.80
2023-04-07T09:46:19.015Z,8.80
2023-04-07T09:48:48.543Z,8.90
2023-04-07T09:51:18.955Z,8.90
2023-04-07T09:53:49.004Z,9.10
2023-04-07T09:56:18.753Z,9.10
2023-04-07T09:58:48.476Z,9.30
2023-04-07T10:01:18.132Z,9.30
2023-04-07T10:03:48.340Z,9.30
2023-04-07T10:06:18.682Z,9.30
2023-04-07T10:08:47.189Z,9.20
2023-04-07T10:11:18.038Z,9.00
2023-04-07T10:13:47.140Z,9.10
2023-04-07T10:16:15.942Z,9.10
2023-04-07T10:18:44.613Z,9.10
2023-04-07T10:21:15.367Z,9.10
2023-04-07T10:23:54.442Z,9.10
2023-04-07T10:26:26.406Z,9.00
2023-04-07T10:28:58.858Z,8.90
2023-04-07T10:31:27.444Z,9.00
2023-04-07T10:33:57.049Z,8.90
2023-04-07T10:36:26.165Z,8.90
2023-04-07T10:39:24.352Z,9.00
2023-04-07T10:41:53.379Z,8.90
2023-04-07T10:44:46.717Z,8.90
2023-04-07T10:47:15.393Z,8.80
2023-04-07T10:50:19.316Z,8.70
2023-04-07T10:52:48.318Z,8.70
2023-04-07T10:55:38.755Z,8.70
2023-04-07T10:58:31.498Z,8.70
2023-04-07T11:01:22.938Z,8.90
2023-04-07T11:04:00.069Z,9.00
2023-04-07T11:06:28.901Z,8.90
2023-04-07T11:08:57.179Z,8.80
2023-04-07T11:11:43.008Z,8.90
2023-04-07T11:14:11.616Z,8.80
2023-04-07T11:16:43.226Z,8.80
2023-04-07T11:19:11.678Z,8.80
2023-04-07T11:21:40.138Z,9.00
2023-04-07T11:24:08.398Z,9.00
2023-04-07T11:26:41.435Z,9.10
2023-04-07T11:29:12.776Z,9.10
2023-04-07T11:31:41.107Z,9.20
2023-04-07T11:34:09.373Z,9.30
2023-04-07T11:36:40.679Z,9.40
2023-04-07T11:39:21.006Z,9.10
2023-04-07T11:41:51.478Z,9.30
2023-04-07T11:44:21.341Z,9.40
2023-04-07T11:46:56.745Z,9.30
2023-04-07T11:49:26.167Z,9.30
2023-04-07T11:52:00.874Z,9.20
2023-04-07T11:54:29.422Z,9.10
2023-04-07T11:56:57.696Z,9.10
2023-04-07T11:59:28.714Z,9.30
2023-04-07T12:01:58.132Z,9.20
2023-04-07T12:04:26.629Z,9.10
2023-04-07T12:06:55.020Z,8.90
2023-04-07T12:09:32.386Z,9.00
2023-04-07T12:12:00.920Z,8.80
2023-04-07T12:14:30.710Z,8.80
2023-04-07T12:16:59.689Z,8.80
2023-04-07T12:19:29.047Z,9.00
2023-04-07T12:21:57.656Z,9.10
2023-04-07T12:24:25.939Z,9.10
2023-04-07T12:26:54.294Z,9.20
2023-04-07T12:29:22.962Z,9.20
2023-04-07T12:31:52.622Z,9.30
2023-04-07T12:34:20.863Z,9.30
2023-04-07T12:36:49.362Z,9.10
2023-04-07T12:39:17.924Z,9.30
2023-04-07T12:41:47.637Z,9.20
2023-04-07T12:44:16.207Z,9.20
2023-04-07T12:46:44.494Z,9.10
2023-04-07T12:49:14.111Z,9.10
2023-04-07T12:51:42.380Z,9.10
2023-04-07T12:54:10.863Z,9.20
2023-04-07T12:56:40.853Z,9.10
2023-04-07T12:59:09.830Z,9.20
2023-04-07T13:01:38.265Z,9.20
2023-04-07T13:04:06.895Z,9.10
2023-04-07T13:06:36.585Z,9.00
2023-04-07T13:09:04.936Z,9.00
2023-04-07T13:11:33.201Z,9.10
2023-04-07T13:14:01.984Z,9.10
2023-04-07T13:16:30.766Z,9.10
2023-04-07T13:18:59.036Z,9.10
2023-04-07T13:21:45.510Z,9.20
2023-04-07T13:24:16.948Z,9.10
2023-04-07T13:26:45.121Z,9.20
2023-04-07T13:29:13.364Z,9.10
2023-04-07T13:31:41.714Z,9.20
2023-04-07T13:34:09.874Z,9.40
2023-04-07T13:36:38.129Z,9.50
2023-04-07T13:39:06.385Z,9.40
2023-04-07T13:41:36.394Z,9.60
2023-04-07T13:44:04.596Z,9.50
2023-04-07T13:46:33.153Z,9.40
2023-04-07T13:49:01.444Z,9.40
2023-04-07T13:51:29.809Z,9.50
2023-04-07T13:53:59.319Z,9.50
2023-04-07T13:56:27.557Z,9.40
2023-04-07T13:58:57.229Z,9.60
2023-04-07T14:01:25.485Z,9.60
2023-04-07T14:03:54.060Z,9.50
2023-04-07T14:06:22.991Z,9.30
2023-04-07T14:08:51.873Z,9.30
2023-04-07T14:11:20.317Z,9.30
2023-04-07T14:13:48.849Z,9.40
2023-04-07T14:16:19.270Z,9.40
2023-04-07T14:18:49.442Z,9.40
2023-04-07T14:21:17.862Z,9.40
2023-04-07T14:23:46.104Z,9.40
2023-04-07T14:26:14.681Z,9.40
2023-04-07T14:28:43.358Z,9.50
2023-04-07T14:31:15.136Z,9.50
2023-04-07T14:33:45.589Z,9.40
2023-04-07T14:36:15.898Z,9.40
2023-04-07T14:38:44.961Z,9.50
2023-04-07T14:41:13.310Z,9.60
2023-04-07T14:43:42.477Z,9.60
2023-04-07T14:46:12.225Z,9.50
2023-04-07T14:48:40.933Z,9.60
2023-04-07T14:51:14.135Z,9.60
2023-04-07T14:53:43.504Z,9.60
2023-04-07T14:56:11.786Z,9.60
2023-04-07T14:58:40.820Z,9.50
2023-04-07T15:01:09.423Z,9.50
2023-04-07T15:03:37.978Z,9.60
2023-04-07T15:06:10.130Z,9.70
2023-04-07T15:08:40.145Z,9.80
2023-04-07T15:11:09.045Z,9.80
2023-04-07T15:13:37.785Z,9.90
2023-04-07T15:16:10.972Z,9.80
2023-04-07T15:18:41.078Z,9.70
2023-04-07T15:21:10.261Z,9.60
2023-04-07T15:23:41.878Z,9.60
2023-04-07T15:26:11.116Z,9.60
2023-04-07T15:28:40.151Z,9.70
2023-04-07T15:31:10.020Z,9.80
2023-04-07T15:33:38.928Z,9.70
2023-04-07T15:36:08.046Z,9.80
2023-04-07T15:38:36.375Z,9.80
2023-04-07T15:41:06.173Z,9.70
2023-04-07T15:43:35.330Z,9.80
2023-04-07T15:46:03.625Z,9.80
2023-04-07T15:48:32.026Z,9.80
2023-04-07T15:51:00.276Z,9.70
2023-04-07T15:53:28.626Z,9.80
2023-04-07T15:55:56.853Z,9.80
2023-04-07T15:58:26.513Z,9.80
2023-04-07T16:00:54.921Z,9.80
2023-04-07T16:03:23.351Z,9.80
2023-04-07T16:05:52.206Z,9.90
2023-04-07T16:08:20.452Z,10.00
2023-04-07T16:10:48.698Z,9.90
2023-04-07T16:13:17.103Z,10.00
2023-04-07T16:15:46.728Z,10.00
2023-04-07T16:18:15.034Z,10.00
2023-04-07T16:20:43.228Z,10.00
2023-04-07T16:23:12.592Z,10.00
2023-04-07T16:25:40.932Z,10.00
2023-04-07T16:28:09.248Z,10.00
2023-04-07T16:30:37.495Z,10.00
2023-04-07T16:33:07.258Z,10.00
2023-04-07T16:35:35.728Z,10.10
2023-04-07T16:38:06.147Z,10.10
2023-04-07T16:40:35.002Z,10.10
2023-04-07T16:43:03.234Z,10.10
2023-04-07T16:45:31.475Z,10.10
2023-04-07T16:47:59.898Z,10.00
2023-04-07T16:50:29.568Z,9.90
2023-04-07T16:52:58.039Z,9.90
2023-04-07T16:55:26.254Z,9.90
2023-04-07T16:57:54.452Z,9.90
2023-04-07T17:00:22.728Z,9.90
2023-04-07T17:02:51.045Z,9.90
2023-04-07T17:05:19.442Z,9.90
2023-04-07T17:07:49.368Z,9.80
2023-04-07T17:10:17.866Z,9.70
2023-04-07T17:12:48.406Z,9.70
2023-04-07T17:15:16.875Z,9.70
2023-04-07T17:17:45.195Z,9.60
2023-04-07T17:20:14.348Z,9.60
2023-04-07T17:22:42.459Z,9.70
2023-04-07T17:25:12.474Z,9.60
2023-04-07T17:27:40.690Z,9.60
2023-04-07T17:30:09.981Z,9.60
2023-04-07T17:32:38.178Z,9.60
2023-04-07T17:35:07.195Z,9.50
2023-04-07T17:37:35.539Z,9.50
2023-04-07T17:40:03.905Z,9.50
2023-04-07T17:42:33.684Z,9.50
2023-04-07T17:45:01.884Z,9.50
2023-04-07T17:47:30.138Z,9.50
2023-04-07T17:49:58.466Z,9.50
2023-04-07T17:52:28.548Z,9.50
2023-04-07T17:54:56.902Z,9.40
2023-04-07T17:57:25.482Z,9.40
2023-04-07T17:59:55.037Z,9.40
2023-04-07T18:02:23.488Z,9.40
2023-04-07T18:04:51.907Z,9.30
2023-04-07T18:07:20.950Z,9.30
2023-04-07T18:09:49.383Z,9.40
2023-04-07T18:12:17.664Z,9.40
2023-04-07T18:14:45.872Z,9.40
2023-04-07T18:17:15.535Z,9.30
2023-04-07T18:19:43.908Z,9.30
2023-04-07T18:22:12.182Z,9.30
2023-04-07T18:24:40.361Z,9.30
2023-04-07T18:27:08.686Z,9.30
2023-04-07T18:29:37.105Z,9.30
2023-04-07T18:32:05.334Z,9.30
2023-04-07T18:34:35.102Z,9.30
2023-04-07T18:37:03.366Z,9.30
2023-04-07T18:39:31.808Z,9.30
2023-04-07T18:42:00.159Z,9.30
2023-04-07T18:44:28.474Z,9.30
2023-04-07T18:46:56.829Z,9.30
2023-04-07T18:49:27.196Z,9.20
2023-04-07T18:51:58.126Z,9.20
2023-04-07T18:54:27.817Z,9.20
2023-04-07T18:56:56.197Z,9.20
2023-04-07T18:59:24.821Z,9.20
2023-04-07T19:01:53.259Z,9.20
2023-04-07T19:04:21.855Z,9.20
2023-04-07T19:06:51.537Z,9.20
2023-04-07T19:09:21.375Z,9.10
2023-04-07T19:11:52.404Z,9.10
2023-04-07T19:14:20.712Z,9.10
2023-04-07T19:16:49.125Z,9.10
2023-04-07T19:19:17.521Z,9.20
2023-04-07T19:21:45.872Z,9.10
2023-04-07T19:24:14.129Z,9.10
2023-04-07T19:26:44.717Z,9.10
2023-04-07T19:29:13.174Z,9.10
2023-04-07T19:31:41.469Z,9.10
2023-04-07T19:34:09.740Z,9.10
2023-04-07T19:36:38.012Z,9.00
2023-04-07T19:39:06.392Z,9.00
2023-04-07T19:41:34.808Z,9.00
2023-04-07T19:44:04.572Z,9.00
2023-04-07T19:46:34.120Z,9.00
2023-04-07T19:49:02.524Z,9.00
2023-04-07T19:51:31.150Z,9.00
2023-04-07T19:53:59.463Z,8.90
2023-04-07T19:56:27.856Z,8.90
2023-04-07T19:58:56.067Z,8.90
2023-04-07T20:01:25.777Z,8.90
2023-04-07T20:03:54.274Z,8.80
2023-04-07T20:06:26.578Z,8.80
2023-04-07T20:08:55.630Z,8.80
2023-04-07T20:11:23.875Z,8.70
2023-04-07T20:13:52.086Z,8.70
2023-04-07T20:16:20.510Z,8.70
2023-04-07T20:18:51.903Z,8.70
2023-04-07T20:21:20.498Z,8.70
2023-04-07T20:23:48.724Z,8.60
2023-04-07T20:26:17.349Z,8.60
2023-04-07T20:28:45.735Z,8.60
2023-04-07T20:31:14.112Z,8.50
2023-04-07T20:33:42.522Z,8.50
2023-04-07T20:36:12.185Z,8.50
2023-04-07T20:38:43.601Z,8.40
2023-04-07T20:41:13.402Z,8.40
2023-04-07T20:43:41.801Z,8.40
2023-04-07T20:46:10.324Z,8.30
2023-04-07T20:48:38.894Z,8.30
2023-04-07T20:51:07.735Z,8.20
2023-04-07T20:53:37.636Z,8.10
2023-04-07T20:56:06.175Z,8.10
2023-04-07T20:58:34.397Z,8.10
2023-04-07T21:01:02.763Z,7.90
2023-04-07T21:03:31.147Z,7.90
2023-04-07T21:05:59.722Z,7.90
2023-04-07T21:08:27.871Z,7.80
2023-04-07T21:10:57.628Z,7.70
2023-04-07T21:13:27.215Z,7.70
2023-04-07T21:15:57.078Z,7.60
2023-04-07T21:18:25.294Z,7.60
2023-04-07T21:20:53.431Z,7.50
2023-04-07T21:23:21.673Z,7.50
2023-04-07T21:25:50.022Z,7.30
2023-04-07T21:28:19.744Z,7.30
2023-04-07T21:30:47.993Z,7.30
2023-04-07T21:33:16.296Z,7.20
2023-04-07T21:35:44.473Z,7.20
2023-04-07T21:38:12.862Z,7.10
2023-04-07T21:40:41.307Z,7.10
2023-04-07T21:43:09.740Z,7.00
2023-04-07T21:45:39.425Z,7.00
2023-04-07T21:48:08.025Z,7.00
2023-04-07T21:50:37.314Z,7.00
2023-04-07T21:53:05.767Z,6.90
2023-04-07T21:55:34.114Z,6.90
2023-04-07T21:58:02.512Z,6.80
2023-04-07T22:00:31.330Z,6.80
2023-04-07T22:03:01.851Z,6.70
2023-04-07T22:05:30.521Z,6.70
2023-04-07T22:07:58.693Z,6.70
2023-04-07T22:10:27.080Z,6.60
2023-04-07T22:12:55.350Z,6.60
2023-04-07T22:15:23.615Z,6.50
2023-04-07T22:17:52.042Z,6.50
2023-04-07T22:20:21.766Z,6.40
2023-04-07T22:22:50.088Z,6.30
2023-04-07T22:25:18.736Z,6.30
2023-04-07T22:27:46.884Z,6.20
2023-04-07T22:30:16.188Z,6.30
2023-04-07T22:32:44.356Z,6.30
2023-04-07T22:35:12.603Z,6.20
2023-04-07T22:37:42.147Z,6.20
2023-04-07T22:40:11.492Z,6.10
2023-04-07T22:42:40.777Z,6.10
2023-04-07T22:45:10.266Z,6.10
2023-04-07T22:47:38.628Z,6.10
2023-04-07T22:50:07.876Z,6.00
2023-04-07T22:52:36.266Z,6.00
2023-04-07T22:55:06.604Z,6.00
2023-04-07T22:57:34.844Z,5.90
2023-04-07T23:00:03.501Z,5.90
2023-04-07T23:02:32.495Z,5.80
2023-04-07T23:05:01.117Z,5.80
2023-04-07T23:07:29.887Z,5.70
2023-04-07T23:09:58.685Z,5.70
2023-04-07T23:12:28.266Z,5.70
2023-04-07T23:14:56.681Z,5.70
2023-04-07T23:17:24.876Z,5.60
2023-04-07T23:19:53.131Z,5.60
2023-04-07T23:22:21.507Z,5.60
2023-04-07T23:24:49.644Z,5.60
2023-04-07T23:27:17.874Z,5.60
2023-04-07T23:29:47.502Z,5.50
2023-04-07T23:32:16.173Z,5.50
2023-04-07T23:34:44.754Z,5.60
2023-04-07T23:37:12.958Z,5.50
2023-04-07T23:39:41.230Z,5.50
2023-04-07T23:42:10.025Z,5.40
2023-04-07T23:44:38.212Z,5.50
2023-04-07T23:47:07.798Z,5.50
2023-04-07T23:49:36.061Z,5.50
2023-04-07T23:52:04.383Z,5.60
2023-04-07T23:54:32.737Z,5.60
2023-04-07T23:57:01.682Z,5.60
2023-04-07T23:59:29.924Z,5.50
